createdAt,value
2022-12-15T00:00:34.131Z,25.65
2022-12-15T00:05:42.504Z,24.42
2022-12-15T00:10:51.404Z,25.04
2022-12-15T00:15:59.683Z,24.79
2022-12-15T00:21:08.324Z,23.51
2022-12-15T00:26:16.782Z,24.24
2022-12-15T00:31:25.603Z,25.28
2022-12-15T00:36:34.014Z,23.82
2022-12-15T00:41:42.812Z,24.00
2022-12-15T00:46:51.293Z,25.03
2022-12-15T00:52:00.014Z,22.64
2022-12-15T00:57:08.484Z,21.61
2022-12-15T01:02:17.776Z,23.16
2022-12-15T01:07:25.909Z,23.40
2022-12-15T01:12:34.734Z,24.67
2022-12-15T01:17:42.941Z,25.53
2022-12-15T01:22:51.732Z,23.47
2022-12-15T01:27:59.973Z,23.27
2022-12-15T01:33:08.903Z,23.70
2022-12-15T01:38:17.371Z,21.33
2022-12-15T01:43:26.091Z,21.97
2022-12-15T01:48:34.462Z,22.49
2022-12-15T01:53:43.156Z,20.48
2022-12-15T01:58:51.106Z,19.51
2022-12-15T02:03:59.714Z,20.64
2022-12-15T02:09:08.000Z,18.86
2022-12-15T02:14:16.794Z,17.21
2022-12-15T02:19:24.948Z,16.79
2022-12-15T02:24:34.004Z,16.95
2022-12-15T02:29:42.494Z,16.99
2022-12-15T02:34:50.963Z,15.95
2022-12-15T02:39:59.157Z,16.03
2022-12-15T02:45:08.120Z,15.64
2022-12-15T02:50:16.638Z,14.71
2022-12-15T02:55:25.159Z,15.52
2022-12-15T03:00:33.839Z,15.10
2022-12-15T03:05:42.628Z,14.11
2022-12-15T03:10:50.894Z,14.33
2022-12-15T03:15:59.620Z,14.67
2022-12-15T03:21:08.149Z,14.31
2022-12-15T03:26:16.716Z,14.23
2022-12-15T03:31:25.294Z,13.93
2022-12-15T03:36:34.158Z,14.30
2022-12-15T03:41:42.291Z,13.63
2022-12-15T03:46:50.726Z,13.91
2022-12-15T03:51:59.060Z,13.69
2022-12-15T03:57:07.756Z,11.74
2022-12-15T04:02:16.352Z,12.39
2022-12-15T04:07:24.839Z,12.01
2022-12-15T04:12:33.171Z,12.57
2022-12-15T04:17:41.754Z,13.22
2022-12-15T04:22:50.251Z,12.06
2022-12-15T04:28:01.642Z,14.21
2022-12-15T04:33:07.330Z,12.46
2022-12-15T04:38:16.041Z,12.39
2022-12-15T04:43:24.562Z,12.25
2022-12-15T04:48:32.978Z,10.93
2022-12-15T04:53:41.032Z,10.72
2022-12-15T04:58:49.945Z,11.23
2022-12-15T05:03:58.291Z,10.80
2022-12-15T05:09:06.954Z,12.25
2022-12-15T05:14:15.220Z,13.01
2022-12-15T05:19:23.800Z,13.44
2022-12-15T05:24:32.219Z,14.74
2022-12-15T05:29:43.530Z,12.58
2022-12-15T05:34:41.504Z,14.14
2022-12-15T05:39:50.311Z,13.69
2022-12-15T05:44:58.439Z,14.07
2022-12-15T05:50:07.938Z,15.67
2022-12-15T05:55:20.285Z,13.87
2022-12-15T06:00:18.877Z,14.47
2022-12-15T06:05:27.327Z,13.98
2022-12-15T06:10:35.625Z,14.11
2022-12-15T06:15:44.093Z,13.55
2022-12-15T06:20:53.430Z,14.54
2022-12-15T06:26:01.758Z,14.94
2022-12-15T06:31:10.867Z,15.38
2022-12-15T06:36:19.074Z,15.32
2022-12-15T06:41:27.864Z,14.43
2022-12-15T06:46:36.258Z,18.47
2022-12-15T06:51:44.921Z,13.98
2022-12-15T06:56:53.903Z,14.81
2022-12-15T07:02:02.632Z,13.64
2022-12-15T07:07:10.602Z,16.20
2022-12-15T07:12:19.023Z,16.16
2022-12-15T07:17:28.324Z,14.16
2022-12-15T07:22:37.621Z,13.81
2022-12-15T07:27:45.901Z,14.05
2022-12-15T07:32:55.109Z,14.22
2022-12-15T07:38:03.335Z,13.83
2022-12-15T07:43:12.626Z,14.00
2022-12-15T07:48:22.662Z,14.87
2022-12-15T07:53:21.478Z,14.00
2022-12-15T07:58:33.446Z,16.10
2022-12-15T08:03:36.619Z,14.30
2022-12-15T08:08:34.293Z,13.31
2022-12-15T08:14:03.595Z,15.50
2022-12-15T08:18:41.883Z,14.08
2022-12-15T08:23:50.837Z,14.18
2022-12-15T08:29:24.399Z,14.39
2022-12-15T08:34:09.529Z,13.97
2022-12-15T08:39:18.995Z,12.67
2022-12-15T08:44:28.196Z,31.93
2022-12-15T08:49:36.912Z,18.07
2022-12-15T08:54:45.848Z,18.70
2022-12-15T08:59:54.492Z,20.27
2022-12-15T09:05:02.897Z,28.11
2022-12-15T09:10:12.391Z,30.90
2022-12-15T09:15:33.961Z,18.21
2022-12-15T09:20:29.182Z,26.79
2022-12-15T09:25:38.649Z,11.89
2022-12-15T09:30:46.921Z,10.37
2022-12-15T09:35:55.321Z,9.47
2022-12-15T09:41:03.648Z,8.80
2022-12-15T09:46:12.171Z,8.54
2022-12-15T09:51:20.674Z,9.39
2022-12-15T09:56:29.597Z,7.74
2022-12-15T10:01:37.853Z,7.71
2022-12-15T10:06:50.543Z,7.03
2022-12-15T10:11:55.040Z,6.76
2022-12-15T10:17:03.489Z,7.47
2022-12-15T10:22:11.915Z,6.96
2022-12-15T10:27:20.945Z,8.15
2022-12-15T10:32:29.712Z,7.12
2022-12-15T10:37:38.583Z,7.48
2022-12-15T10:42:47.001Z,7.34
2022-12-15T10:47:55.701Z,8.34
2022-12-15T10:53:03.880Z,7.88
2022-12-15T10:58:12.581Z,7.95
2022-12-15T11:03:21.224Z,8.11
2022-12-15T11:08:29.735Z,7.78
2022-12-15T11:13:38.858Z,9.03
2022-12-15T11:18:46.723Z,8.83
2022-12-15T11:23:54.462Z,8.67
2022-12-15T11:29:03.530Z,8.97
2022-12-15T11:34:11.863Z,10.44
2022-12-15T11:39:20.777Z,12.38
2022-12-15T11:44:29.262Z,10.80
2022-12-15T11:49:41.163Z,11.06
2022-12-15T11:54:45.613Z,10.69
2022-12-15T11:59:54.325Z,9.81
2022-12-15T12:05:02.589Z,9.32
2022-12-15T12:10:11.497Z,10.25
2022-12-15T12:15:19.947Z,10.61
2022-12-15T12:20:28.817Z,11.54
2022-12-15T12:25:37.202Z,10.32
2022-12-15T12:30:45.765Z,10.59
2022-12-15T12:35:54.129Z,10.28
2022-12-15T12:41:02.819Z,11.98
2022-12-15T12:46:11.388Z,10.21
2022-12-15T12:51:20.088Z,11.70
2022-12-15T12:56:28.450Z,11.21
2022-12-15T13:01:37.295Z,12.49
2022-12-15T13:06:45.994Z,12.83
2022-12-15T13:11:54.723Z,12.30
2022-12-15T13:17:25.602Z,14.19
2022-12-15T13:22:11.380Z,12.46
2022-12-15T13:27:19.645Z,13.20
2022-12-15T13:32:29.791Z,10.91
2022-12-15T13:37:21.648Z,12.63
2022-12-15T13:42:37.260Z,12.09
2022-12-15T13:47:38.466Z,12.04
2022-12-15T13:53:19.036Z,16.85
2022-12-15T13:57:55.913Z,37.12
2022-12-15T14:03:04.650Z,27.64
2022-12-15T14:08:12.815Z,14.14
2022-12-15T14:13:21.626Z,13.55
2022-12-15T14:18:30.045Z,14.14
2022-12-15T14:23:39.422Z,12.29
2022-12-15T14:28:47.829Z,11.96
2022-12-15T14:33:56.113Z,11.41
2022-12-15T14:39:05.088Z,10.20
2022-12-15T14:44:37.180Z,11.04
2022-12-15T14:49:21.647Z,11.83
2022-12-15T14:54:30.606Z,10.62
2022-12-15T14:59:39.323Z,10.81
2022-12-15T15:04:49.986Z,10.68
2022-12-15T15:09:49.026Z,11.33
2022-12-15T15:14:58.294Z,11.54
2022-12-15T15:20:08.311Z,12.62
2022-12-15T15:25:18.675Z,11.63
2022-12-15T15:30:17.220Z,13.53
2022-12-15T15:35:26.104Z,13.74
2022-12-15T15:40:36.155Z,14.25
2022-12-15T15:45:35.152Z,15.14
2022-12-15T15:50:43.924Z,15.51
2022-12-15T15:55:52.639Z,16.39
2022-12-15T16:01:01.417Z,16.56
2022-12-15T16:06:10.148Z,16.75
2022-12-15T16:11:18.966Z,18.07
2022-12-15T16:16:27.853Z,19.18
2022-12-15T16:21:37.556Z,19.30
2022-12-15T16:26:46.453Z,21.99
2022-12-15T16:31:57.367Z,19.01
2022-12-15T16:36:56.097Z,20.09
2022-12-15T16:42:04.645Z,20.56
2022-12-15T16:47:13.363Z,19.10
2022-12-15T16:52:21.954Z,19.26
2022-12-15T16:57:31.085Z,18.66
2022-12-15T17:02:40.022Z,18.81
2022-12-15T17:07:48.992Z,20.31
2022-12-15T17:12:57.640Z,18.23
2022-12-15T17:18:06.396Z,17.83
2022-12-15T17:23:14.844Z,20.30
2022-12-15T17:28:23.529Z,22.12
2022-12-15T17:33:32.262Z,21.26
2022-12-15T17:38:40.030Z,22.78
2022-12-15T17:44:04.307Z,22.61
2022-12-15T17:48:57.251Z,23.54
2022-12-15T17:54:06.120Z,23.51
2022-12-15T17:59:14.896Z,23.00
2022-12-15T18:04:23.509Z,22.81
2022-12-15T18:09:32.218Z,22.40
2022-12-15T18:14:40.775Z,24.18
2022-12-15T18:19:49.582Z,22.39
2022-12-15T18:24:58.059Z,20.90
2022-12-15T18:30:08.142Z,20.37
2022-12-15T18:35:06.448Z,21.16
2022-12-15T18:40:15.412Z,20.35
2022-12-15T18:45:26.827Z,20.99
2022-12-15T18:50:32.314Z,17.18
2022-12-15T18:55:41.015Z,30.90
2022-12-15T19:00:49.807Z,24.15
2022-12-15T19:05:58.439Z,22.17
2022-12-15T19:11:07.113Z,21.94
2022-12-15T19:16:18.513Z,22.24
2022-12-15T19:21:17.224Z,20.95
2022-12-15T19:26:25.741Z,22.93
2022-12-15T19:31:34.621Z,21.33
2022-12-15T19:36:42.950Z,23.08
2022-12-15T19:41:51.610Z,21.31
2022-12-15T19:47:00.331Z,21.91
2022-12-15T19:52:08.773Z,21.73
2022-12-15T19:57:17.762Z,21.51
2022-12-15T20:02:26.953Z,22.36
2022-12-15T20:07:36.381Z,21.72
2022-12-15T20:12:45.012Z,25.15
2022-12-15T20:17:53.530Z,26.06
2022-12-15T20:23:01.699Z,26.51
2022-12-15T20:28:10.243Z,21.33
2022-12-15T20:33:19.261Z,20.70
2022-12-15T20:38:27.761Z,23.01
2022-12-15T20:43:37.010Z,20.84
2022-12-15T20:48:45.354Z,18.99
2022-12-15T20:53:53.610Z,18.92
2022-12-15T20:59:01.942Z,19.36
2022-12-15T21:04:11.245Z,18.16
2022-12-15T21:09:20.449Z,19.35
2022-12-15T21:14:30.068Z,18.46
2022-12-15T21:19:38.990Z,19.47
2022-12-15T21:24:47.877Z,19.50
2022-12-15T21:29:56.315Z,22.65
2022-12-15T21:35:05.463Z,21.57
2022-12-15T21:40:14.310Z,21.60
2022-12-15T21:45:23.590Z,23.22
2022-12-15T21:50:32.130Z,22.62
2022-12-15T21:55:40.893Z,22.96
2022-12-15T22:00:49.769Z,22.21
2022-12-15T22:05:58.532Z,21.03
2022-12-15T22:11:07.136Z,22.13
2022-12-15T22:16:15.775Z,23.79
2022-12-15T22:21:24.837Z,24.47
2022-12-15T22:26:33.552Z,22.65
2022-12-15T22:31:42.269Z,24.84
2022-12-15T22:36:51.868Z,26.42
2022-12-15T22:41:59.354Z,23.77
2022-12-15T22:47:08.486Z,25.89
2022-12-15T22:52:17.339Z,25.44
2022-12-15T22:57:26.584Z,26.89
2022-12-15T23:02:35.478Z,24.55
2022-12-15T23:07:44.115Z,25.04
2022-12-15T23:12:52.707Z,25.33
2022-12-15T23:18:01.672Z,24.36
2022-12-15T23:23:10.494Z,21.70
2022-12-15T23:28:18.891Z,22.23
2022-12-15T23:33:27.793Z,21.82
2022-12-15T23:38:36.769Z,23.50
2022-12-15T23:43:45.013Z,24.37
2022-12-15T23:48:54.066Z,23.43
2022-12-15T23:54:02.047Z,23.21
2022-12-15T23:59:11.025Z,24.04
